sensor_id;sensor_type;location;lat;lon;timestamp;temperature;humidity
39371;DHT22;25099;51.946;4.838;2023-03-14T03:18:33;10.40;99.90
39371;DHT22;25099;51.946;4.838;2023-03-14T03:24:00;10.50;99.90
39371;DHT22;25099;51.946;4.838;2023-03-14T04:36:22;10.50;99.90
39371;DHT22;25099;51.946;4.838;2023-03-14T05:27:10;10.20;99.90
39371;DHT22;25099;51.946;4.838;2023-03-14T05:29:46;10.00;99.90
39371;DHT22;25099;51.946;4.838;2023-03-14T05:52:26;10.10;99.90
39371;DHT22;25099;51.946;4.838;2023-03-14T05:58:58;10.00;99.90
39371;DHT22;25099;51.946;4.838;2023-03-14T06:09:35;9.50;99.90
39371;DHT22;25099;51.946;4.838;2023-03-14T06:12:01;8.40;99.90
39371;DHT22;25099;51.946;4.838;2023-03-14T06:14:32;9.90;99.90
39371;DHT22;25099;51.946;4.838;2023-03-14T06:19:32;9.00;99.90
39371;DHT22;25099;51.946;4.838;2023-03-14T06:24:34;9.20;99.90
39371;DHT22;25099;51.946;4.838;2023-03-14T06:29:36;8.90;99.90
39371;DHT22;25099;51.946;4.838;2023-03-14T06:32:03;8.60;99.90
39371;DHT22;25099;51.946;4.838;2023-03-14T06:34:31;8.80;99.90
39371;DHT22;25099;51.946;4.838;2023-03-14T06:37:00;7.30;99.90
39371;DHT22;25099;51.946;4.838;2023-03-14T06:39:28;8.80;99.90
39371;DHT22;25099;51.946;4.838;2023-03-14T06:42:03;9.30;99.90
39371;DHT22;25099;51.946;4.838;2023-03-14T06:44:29;8.80;99.90
39371;DHT22;25099;51.946;4.838;2023-03-14T06:46:57;8.70;99.90
39371;DHT22;25099;51.946;4.838;2023-03-14T06:49:25;8.80;99.90
39371;DHT22;25099;51.946;4.838;2023-03-14T06:51:53;9.10;99.90
39371;DHT22;25099;51.946;4.838;2023-03-14T06:54:27;8.70;99.90
39371;DHT22;25099;51.946;4.838;2023-03-14T06:56:59;8.70;99.90
39371;DHT22;25099;51.946;4.838;2023-03-14T06:59:24;8.70;99.90
39371;DHT22;25099;51.946;4.838;2023-03-14T07:02:04;8.60;99.90
39371;DHT22;25099;51.946;4.838;2023-03-14T07:04:33;7.80;99.90
39371;DHT22;25099;51.946;4.838;2023-03-14T07:07:01;7.90;99.90
39371;DHT22;25099;51.946;4.838;2023-03-14T07:09:32;8.80;99.90
39371;DHT22;25099;51.946;4.838;2023-03-14T07:12:01;8.60;99.90
39371;DHT22;25099;51.946;4.838;2023-03-14T07:14:31;8.20;99.90
39371;DHT22;25099;51.946;4.838;2023-03-14T07:17:03;8.50;99.90
39371;DHT22;25099;51.946;4.838;2023-03-14T07:19:31;8.60;99.90
39371;DHT22;25099;51.946;4.838;2023-03-14T07:22:06;8.60;99.90
39371;DHT22;25099;51.946;4.838;2023-03-14T07:24:35;8.50;99.90
39371;DHT22;25099;51.946;4.838;2023-03-14T07:27:04;8.50;99.90
39371;DHT22;25099;51.946;4.838;2023-03-14T07:29:35;8.60;99.90
39371;DHT22;25099;51.946;4.838;2023-03-14T07:32:03;8.90;99.90
39371;DHT22;25099;51.946;4.838;2023-03-14T07:34:37;8.40;99.90
39371;DHT22;25099;51.946;4.838;2023-03-14T07:37:09;8.60;99.90
39371;DHT22;25099;51.946;4.838;2023-03-14T07:39:35;8.40;99.90
39371;DHT22;25099;51.946;4.838;2023-03-14T07:42:12;7.60;99.90
39371;DHT22;25099;51.946;4.838;2023-03-14T07:44:40;8.40;99.90
39371;DHT22;25099;51.946;4.838;2023-03-14T07:47:08;8.80;99.90
39371;DHT22;25099;51.946;4.838;2023-03-14T07:49:37;8.40;99.90
39371;DHT22;25099;51.946;4.838;2023-03-14T07:52:06;8.80;99.90
39371;DHT22;25099;51.946;4.838;2023-03-14T07:54:37;8.40;99.90
39371;DHT22;25099;51.946;4.838;2023-03-14T07:57:08;8.40;99.90
39371;DHT22;25099;51.946;4.838;2023-03-14T08:06:17;8.30;99.90
39371;DHT22;25099;51.946;4.838;2023-03-14T08:08:48;8.20;99.90
39371;DHT22;25099;51.946;4.838;2023-03-14T08:11:20;8.10;99.90
39371;DHT22;25099;51.946;4.838;2023-03-14T08:13:54;8.00;99.90
39371;DHT22;25099;51.946;4.838;2023-03-14T08:16:54;7.90;99.90
39371;DHT22;25099;51.946;4.838;2023-03-14T08:22:32;7.50;99.90
39371;DHT22;25099;51.946;4.838;2023-03-14T08:25:00;7.30;99.90
39371;DHT22;25099;51.946;4.838;2023-03-14T08:27:31;6.50;99.90
39371;DHT22;25099;51.946;4.838;2023-03-14T08:30:02;7.20;99.90
39371;DHT22;25099;51.946;4.838;2023-03-14T08:32:55;7.30;99.90
39371;DHT22;25099;51.946;4.838;2023-03-14T08:35:33;7.20;99.90
39371;DHT22;25099;51.946;4.838;2023-03-14T08:40:54;7.20;99.90
39371;DHT22;25099;51.946;4.838;2023-03-14T08:58:32;6.50;99.90
39371;DHT22;25099;51.946;4.838;2023-03-14T09:01:20;7.20;99.90
39371;DHT22;25099;51.946;4.838;2023-03-14T09:03:52;6.80;99.90
39371;DHT22;25099;51.946;4.838;2023-03-14T09:06:24;7.10;99.90
